Fillmore, Minnesota
Current Conditions -  °F | °C
As of 4:55 AM on Sunday 26 Oct 2014 (Local Time) from KFKA Reporting Station
Clear Clear  
Wind Chill: 40°   Ceiling: Unl
Heat Index: 40°   Visibility: 10mi
Dew Point: 27°   Wind: 0mph
Humidity: 59%   Direction: NA
Pressure: 30.03"   Gusts: NA
Location:  43.7236°N, 92.2677°W
Report Text: KFKA 260955Z AUTO 00000KT 10SM CLR 04/M03 A3003 RMK AO2 T00441030
Loading
Personal Weather Stations






























Interactive Weather Map
Tropical Storm Tracking
New forecast layout! Learn more

10-Day Weather Forecast

Advertisements
Track Severe Weather on mobile